Wetterdaten: Woche 17.06.13 - 23.06.13 (KW25)
Datum Zeit Temperatur Luftfeuchte Luftdruck Niederschlag Windrichtung Sonnenschein Solar Wind
17.06.2013 00:00 17,2 C 87 % 1012,2 hPa 0,0 l/m N 0,00 h 0 W/m 0,1 km/h (0 Bft)
17.06.2013 01:00 16,9 C 87 % 1011,9 hPa 0,0 l/m N 0,00 h 0 W/m 0,7 km/h (0 Bft)
17.06.2013 02:00 16,3 C 89 % 1011,8 hPa 0,0 l/m N 0,00 h 0 W/m 0,3 km/h (0 Bft)
17.06.2013 03:00 15,9 C 91 % 1011,6 hPa 0,0 l/m N 0,00 h 0 W/m 0,0 km/h (0 Bft)
17.06.2013 04:00 15,7 C 92 % 1011,3 hPa 0,0 l/m N 0,00 h 0 W/m 0,4 km/h (0 Bft)
17.06.2013 05:00 15,7 C 92 % 1011,3 hPa 0,0 l/m W-SW 0,00 h 8 W/m 1,3 km/h (1 Bft)
17.06.2013 06:00 16,2 C 91 % 1011,5 hPa 0,0 l/m N 0,00 h 60 W/m 0,8 km/h (0 Bft)
17.06.2013 07:00 18,6 C 84 % 1011,8 hPa 0,0 l/m N 0,92 h 202 W/m 0,5 km/h (0 Bft)
17.06.2013 08:00 21,0 C 76 % 1011,5 hPa 0,0 l/m N 1,00 h 368 W/m 1,2 km/h (1 Bft)
17.06.2013 09:00 23,4 C 66 % 1011,3 hPa 0,0 l/m N 1,00 h 532 W/m 2,0 km/h (1 Bft)
17.06.2013 10:00 25,8 C 59 % 1011,0 hPa 0,0 l/m W-SW 1,00 h 674 W/m 5,9 km/h (2 Bft)
17.06.2013 11:00 28,0 C 53 % 1010,7 hPa 0,0 l/m O 1,00 h 793 W/m 6,8 km/h (2 Bft)
17.06.2013 12:00 30,0 C 44 % 1010,4 hPa 0,0 l/m O-NO 1,00 h 869 W/m 10,9 km/h (2 Bft)
17.06.2013 13:00 31,6 C 40 % 1010,0 hPa 0,0 l/m O-SO 1,00 h 891 W/m 12,1 km/h (2 Bft)
17.06.2013 14:00 32,6 C 35 % 1009,7 hPa 0,0 l/m SO 1,00 h 874 W/m 10,7 km/h (2 Bft)
17.06.2013 15:00 33,3 C 34 % 1009,4 hPa 0,0 l/m S-SO 1,00 h 818 W/m 9,7 km/h (2 Bft)
17.06.2013 16:00 33,4 C 37 % 1009,2 hPa 0,0 l/m W-SW 1,00 h 710 W/m 10,3 km/h (2 Bft)
17.06.2013 17:00 33,0 C 34 % 1008,8 hPa 0,0 l/m W-SW 1,00 h 574 W/m 8,7 km/h (2 Bft)
17.06.2013 18:00 32,2 C 35 % 1008,6 hPa 0,0 l/m SW 1,00 h 406 W/m 7,1 km/h (2 Bft)
17.06.2013 19:00 30,3 C 45 % 1008,7 hPa 0,0 l/m N 1,00 h 226 W/m 1,2 km/h (1 Bft)
17.06.2013 20:00 26,4 C 61 % 1008,8 hPa 0,0 l/m N 0,25 h 52 W/m 0,7 km/h (0 Bft)
17.06.2013 21:00 23,5 C 62 % 1009,1 hPa 0,0 l/m N 0,00 h 8 W/m 0,1 km/h (0 Bft)
17.06.2013 22:00 21,7 C 65 % 1009,7 hPa 0,0 l/m N 0,00 h 0 W/m 0,5 km/h (0 Bft)
17.06.2013 23:00 20,6 C 72 % 1010,2 hPa 0,0 l/m N 0,00 h 0 W/m 0,4 km/h (0 Bft)
18.06.2013 00:00 19,5 C 77 % 1010,3 hPa 0,0 l/m N 0,00 h 0 W/m 0,1 km/h (0 Bft)
18.06.2013 01:00 18,8 C 81 % 1010,8 hPa 0,0 l/m N 0,00 h 0 W/m 0,9 km/h (0 Bft)
18.06.2013 02:00 19,4 C 78 % 1011,5 hPa 0,0 l/m W-NW 0,00 h 0 W/m 7,6 km/h (2 Bft)
18.06.2013 03:00 20,4 C 72 % 1011,9 hPa 0,0 l/m N-NW 0,00 h 0 W/m 6,4 km/h (2 Bft)
18.06.2013 04:00 18,6 C 80 % 1012,2 hPa 0,0 l/m W 0,00 h 0 W/m 2,0 km/h (1 Bft)
18.06.2013 05:00 17,3 C 87 % 1012,7 hPa 0,0 l/m W-SW 0,00 h 11 W/m 2,7 km/h (1 Bft)
18.06.2013 06:00 17,6 C 87 % 1012,9 hPa 0,0 l/m N 0,00 h 57 W/m 0,9 km/h (0 Bft)
18.06.2013 07:00 19,7 C 81 % 1012,7 hPa 0,0 l/m W-SW 0,75 h 192 W/m 2,1 km/h (1 Bft)
18.06.2013 08:00 22,7 C 73 % 1012,3 hPa 0,0 l/m W-SW 1,00 h 354 W/m 3,6 km/h (1 Bft)
18.06.2013 09:00 25,4 C 67 % 1012,1 hPa 0,0 l/m W-SW 1,00 h 518 W/m 6,8 km/h (2 Bft)
18.06.2013 10:00 28,8 C 48 % 1011,9 hPa 0,0 l/m O-SO 1,00 h 664 W/m 13,6 km/h (3 Bft)
18.06.2013 11:00 29,7 C 43 % 1011,7 hPa 0,0 l/m O-NO 1,00 h 778 W/m 16,0 km/h (3 Bft)
18.06.2013 12:00 30,4 C 44 % 1011,2 hPa 0,0 l/m NO 1,00 h 849 W/m 18,9 km/h (3 Bft)
18.06.2013 13:00 31,6 C 43 % 1010,6 hPa 0,0 l/m O 1,00 h 882 W/m 18,5 km/h (3 Bft)
18.06.2013 14:00 32,7 C 42 % 1010,1 hPa 0,0 l/m O 1,00 h 863 W/m 17,6 km/h (3 Bft)
18.06.2013 15:00 33,4 C 40 % 1009,8 hPa 0,0 l/m O-NO 1,00 h 798 W/m 20,1 km/h (4 Bft)
18.06.2013 16:00 33,7 C 40 % 1009,3 hPa 0,0 l/m O-NO 1,00 h 696 W/m 20,2 km/h (4 Bft)
18.06.2013 17:00 33,6 C 40 % 1008,9 hPa 0,0 l/m O-NO 1,00 h 562 W/m 18,9 km/h (3 Bft)
18.06.2013 18:00 33,0 C 40 % 1008,7 hPa 0,0 l/m O-NO 1,00 h 429 W/m 21,0 km/h (4 Bft)
18.06.2013 19:00 31,4 C 41 % 1008,9 hPa 0,0 l/m O-NO 0,67 h 176 W/m 18,4 km/h (3 Bft)
18.06.2013 20:00 28,5 C 48 % 1010,3 hPa 0,0 l/m O-SO 0,25 h 53 W/m 18,4 km/h (3 Bft)
18.06.2013 21:00 23,6 C 59 % 1011,5 hPa 0,0 l/m SW 0,08 h 11 W/m 12,3 km/h (3 Bft)
18.06.2013 22:00 22,4 C 66 % 1011,8 hPa 0,0 l/m N 0,00 h 0 W/m 1,2 km/h (1 Bft)
18.06.2013 23:00 21,9 C 68 % 1011,3 hPa 0,0 l/m S-SW 0,00 h 0 W/m 2,4 km/h (1 Bft)
19.06.2013 00:00 21,6 C 68 % 1010,3 hPa 0,0 l/m O-NO 0,00 h 0 W/m 6,2 km/h (2 Bft)
19.06.2013 01:00 21,3 C 68 % 1010,3 hPa 0,0 l/m N 0,00 h 0 W/m 2,4 km/h (1 Bft)
19.06.2013 02:00 19,8 C 74 % 1010,1 hPa 0,0 l/m O-NO 0,00 h 0 W/m 1,6 km/h (1 Bft)
19.06.2013 03:00 18,4 C 80 % 1009,6 hPa 0,0 l/m N 0,00 h 0 W/m 0,7 km/h (0 Bft)
19.06.2013 04:00 17,5 C 82 % 1009,1 hPa 0,0 l/m N 0,00 h 0 W/m 1,1 km/h (0 Bft)
19.06.2013 05:00 16,8 C 86 % 1008,8 hPa 0,0 l/m N 0,00 h 7 W/m 1,9 km/h (1 Bft)
19.06.2013 06:00 17,4 C 85 % 1009,0 hPa 0,0 l/m NO 0,00 h 55 W/m 3,5 km/h (1 Bft)
19.06.2013 07:00 20,5 C 75 % 1008,8 hPa 0,0 l/m NO 0,92 h 209 W/m 3,3 km/h (1 Bft)
19.06.2013 08:00 22,9 C 67 % 1008,8 hPa 0,0 l/m NO 1,00 h 375 W/m 3,2 km/h (1 Bft)
19.06.2013 09:00 25,2 C 60 % 1008,8 hPa 0,0 l/m NO 1,00 h 541 W/m 3,3 km/h (1 Bft)
19.06.2013 10:00 27,6 C 54 % 1008,6 hPa 0,0 l/m S-SO 1,00 h 683 W/m 6,8 km/h (2 Bft)
19.06.2013 11:00 29,6 C 48 % 1008,6 hPa 0,0 l/m SW 1,00 h 789 W/m 11,6 km/h (2 Bft)
19.06.2013 12:00 30,9 C 41 % 1008,4 hPa 0,0 l/m SW 1,00 h 847 W/m 11,4 km/h (2 Bft)
19.06.2013 13:00 32,0 C 35 % 1008,3 hPa 0,0 l/m SW 1,00 h 857 W/m 11,4 km/h (2 Bft)
19.06.2013 14:00 32,1 C 36 % 1008,0 hPa 0,0 l/m W-SW 1,00 h 742 W/m 13,8 km/h (3 Bft)
19.06.2013 15:00 33,0 C 34 % 1007,9 hPa 0,0 l/m W 1,00 h 825 W/m 13,2 km/h (3 Bft)
19.06.2013 16:00 31,9 C 37 % 1007,8 hPa 0,0 l/m W-SW 0,67 h 440 W/m 8,7 km/h (2 Bft)
19.06.2013 17:00 30,6 C 44 % 1007,5 hPa 0,0 l/m W 0,50 h 310 W/m 6,1 km/h (2 Bft)
19.06.2013 18:00 29,0 C 55 % 1007,6 hPa 0,0 l/m N 0,00 h 136 W/m 1,6 km/h (1 Bft)
19.06.2013 19:00 26,7 C 64 % 1007,5 hPa 0,0 l/m N 0,08 h 108 W/m 1,3 km/h (1 Bft)
19.06.2013 20:00 24,6 C 70 % 1007,5 hPa 0,0 l/m N 0,08 h 35 W/m 0,3 km/h (0 Bft)
19.06.2013 21:00 22,3 C 71 % 1008,2 hPa 0,0 l/m N 0,00 h 6 W/m 0,5 km/h (0 Bft)
19.06.2013 22:00 21,1 C 77 % 1008,6 hPa 0,0 l/m N 0,00 h 0 W/m 0,3 km/h (0 Bft)
19.06.2013 23:00 20,3 C 84 % 1008,8 hPa 0,0 l/m N 0,00 h 0 W/m 0,3 km/h (0 Bft)
20.06.2013 00:00 18,9 C 88 % 1008,8 hPa 0,0 l/m N 0,00 h 0 W/m 0,0 km/h (0 Bft)
20.06.2013 01:00 18,1 C 91 % 1008,5 hPa 0,0 l/m N 0,00 h 0 W/m 0,0 km/h (0 Bft)
20.06.2013 02:00 17,7 C 92 % 1008,4 hPa 0,0 l/m N 0,00 h 0 W/m 0,0 km/h (0 Bft)
20.06.2013 03:00 17,1 C 94 % 1008,3 hPa 0,0 l/m N 0,00 h 0 W/m 0,1 km/h (0 Bft)
20.06.2013 04:00 16,4 C 94 % 1008,4 hPa 0,0 l/m N 0,00 h 0 W/m 0,1 km/h (0 Bft)
20.06.2013 05:00 17,0 C 89 % 1008,7 hPa 0,0 l/m W 0,00 h 11 W/m 5,5 km/h (1 Bft)
20.06.2013 06:00 17,2 C 88 % 1008,8 hPa 0,0 l/m N 0,00 h 57 W/m 0,5 km/h (0 Bft)
20.06.2013 07:00 19,4 C 85 % 1008,9 hPa 0,0 l/m N 0,67 h 184 W/m 0,4 km/h (0 Bft)
20.06.2013 08:00 22,1 C 76 % 1008,8 hPa 0,0 l/m N 1,00 h 345 W/m 1,3 km/h (1 Bft)
20.06.2013 09:00 24,4 C 65 % 1009,1 hPa 0,0 l/m S-SO 1,00 h 507 W/m 3,9 km/h (1 Bft)
20.06.2013 10:00 26,3 C 59 % 1009,2 hPa 0,0 l/m S-SW 1,00 h 638 W/m 13,5 km/h (3 Bft)
20.06.2013 11:00 27,1 C 59 % 1009,2 hPa 0,0 l/m W-SW 1,00 h 759 W/m 16,9 km/h (3 Bft)
20.06.2013 12:00 27,6 C 57 % 1009,0 hPa 0,0 l/m W-NW 1,00 h 867 W/m 15,0 km/h (3 Bft)
20.06.2013 13:00 27,8 C 55 % 1008,6 hPa 0,0 l/m W-NW 0,58 h 573 W/m 13,3 km/h (3 Bft)
20.06.2013 14:00 28,5 C 54 % 1008,0 hPa 0,0 l/m W-NW 0,75 h 713 W/m 9,1 km/h (2 Bft)
20.06.2013 15:00 28,0 C 64 % 1007,4 hPa 0,0 l/m N 0,42 h 385 W/m 14,8 km/h (3 Bft)
20.06.2013 16:00 24,1 C 84 % 1007,4 hPa 1,6 l/m O 0,00 h 52 W/m 9,0 km/h (2 Bft)
20.06.2013 17:00 22,6 C 91 % 1007,5 hPa 0,2 l/m NO 0,00 h 103 W/m 7,2 km/h (2 Bft)
20.06.2013 18:00 21,7 C 89 % 1006,8 hPa 0,0 l/m NO 0,00 h 59 W/m 3,5 km/h (1 Bft)
20.06.2013 19:00 21,7 C 89 % 1006,5 hPa 0,0 l/m NO 0,08 h 101 W/m 3,1 km/h (1 Bft)
20.06.2013 20:00 21,8 C 89 % 1006,6 hPa 0,0 l/m O-SO 0,25 h 52 W/m 5,9 km/h (2 Bft)
20.06.2013 21:00 20,6 C 91 % 1006,7 hPa 0,0 l/m W-SW 0,00 h 6 W/m 12,6 km/h (3 Bft)
20.06.2013 22:00 19,3 C 77 % 1008,8 hPa 0,0 l/m W 0,00 h 0 W/m 37,1 km/h (5 Bft)
20.06.2013 23:00 17,0 C 76 % 1011,4 hPa 0,0 l/m W 0,00 h 0 W/m 17,2 km/h (3 Bft)
21.06.2013 00:00 16,0 C 80 % 1012,2 hPa 0,4 l/m W-SW 0,00 h 0 W/m 13,4 km/h (3 Bft)
21.06.2013 01:00 14,5 C 92 % 1012,7 hPa 4,4 l/m W-SW 0,00 h 0 W/m 6,8 km/h (2 Bft)
21.06.2013 02:00 13,9 C 96 % 1012,7 hPa 0,0 l/m SW 0,00 h 0 W/m 15,2 km/h (3 Bft)
21.06.2013 03:00 13,7 C 97 % 1012,5 hPa 0,2 l/m SW 0,00 h 0 W/m 15,8 km/h (3 Bft)
21.06.2013 04:00 13,4 C 97 % 1012,7 hPa 0,0 l/m SW 0,00 h 0 W/m 12,8 km/h (3 Bft)
21.06.2013 05:00 13,6 C 97 % 1013,2 hPa 0,0 l/m S-SW 0,00 h 12 W/m 10,9 km/h (2 Bft)
21.06.2013 06:00 13,9 C 97 % 1012,9 hPa 0,0 l/m SW 0,33 h 84 W/m 10,1 km/h (2 Bft)
21.06.2013 07:00 15,3 C 90 % 1012,8 hPa 0,0 l/m SW 1,00 h 240 W/m 13,2 km/h (3 Bft)
21.06.2013 08:00 16,0 C 86 % 1013,1 hPa 0,0 l/m S-SW 0,25 h 200 W/m 9,5 km/h (2 Bft)
21.06.2013 09:00 16,7 C 84 % 1013,2 hPa 0,0 l/m SW 0,42 h 350 W/m 12,4 km/h (3 Bft)
21.06.2013 10:00 18,3 C 74 % 1013,2 hPa 0,0 l/m SW 0,92 h 667 W/m 18,0 km/h (3 Bft)
21.06.2013 11:00 19,5 C 68 % 1013,4 hPa 0,0 l/m W-NW 0,92 h 834 W/m 17,3 km/h (3 Bft)
21.06.2013 12:00 20,0 C 62 % 1013,3 hPa 0,0 l/m W 0,58 h 603 W/m 16,9 km/h (3 Bft)
21.06.2013 13:00 21,2 C 60 % 1013,2 hPa 0,0 l/m W 0,83 h 883 W/m 16,6 km/h (3 Bft)
21.06.2013 14:00 22,6 C 57 % 1013,2 hPa 0,0 l/m W 1,00 h 948 W/m 18,8 km/h (3 Bft)
21.06.2013 15:00 23,1 C 55 % 1013,1 hPa 0,0 l/m SW 0,83 h 827 W/m 15,7 km/h (3 Bft)
21.06.2013 16:00 22,7 C 53 % 1013,3 hPa 0,0 l/m W-SW 0,42 h 480 W/m 10,3 km/h (2 Bft)
21.06.2013 17:00 23,0 C 52 % 1013,2 hPa 0,0 l/m W-SW 0,67 h 502 W/m 13,0 km/h (3 Bft)
21.06.2013 18:00 21,7 C 57 % 1013,4 hPa 0,0 l/m N 0,00 h 105 W/m 4,7 km/h (1 Bft)
21.06.2013 19:00 20,6 C 63 % 1013,7 hPa 0,0 l/m W-NW 0,00 h 40 W/m 5,2 km/h (1 Bft)
21.06.2013 20:00 19,9 C 68 % 1014,1 hPa 0,0 l/m W-SW 0,00 h 17 W/m 3,9 km/h (1 Bft)
21.06.2013 21:00 19,2 C 71 % 1014,6 hPa 0,0 l/m N 0,00 h 0 W/m 4,1 km/h (1 Bft)
21.06.2013 22:00 18,5 C 76 % 1015,0 hPa 0,0 l/m N 0,00 h 0 W/m 1,1 km/h (0 Bft)
21.06.2013 23:00 18,0 C 80 % 1015,2 hPa 0,0 l/m N 0,00 h 0 W/m 0,3 km/h (0 Bft)
22.06.2013 00:00 17,6 C 77 % 1015,4 hPa 0,0 l/m W-SW 0,00 h 0 W/m 4,5 km/h (1 Bft)
22.06.2013 01:00 17,0 C 79 % 1015,5 hPa 0,0 l/m W-NW 0,00 h 0 W/m 4,8 km/h (1 Bft)
22.06.2013 02:00 16,4 C 85 % 1015,5 hPa 0,0 l/m N 0,00 h 0 W/m 3,5 km/h (1 Bft)
22.06.2013 03:00 16,0 C 86 % 1015,4 hPa 0,0 l/m N 0,00 h 0 W/m 2,7 km/h (1 Bft)
22.06.2013 04:00 15,8 C 87 % 1015,4 hPa 0,0 l/m W-NW 0,00 h 0 W/m 4,0 km/h (1 Bft)
22.06.2013 05:00 15,2 C 89 % 1015,6 hPa 0,2 l/m W-NW 0,00 h 0 W/m 4,7 km/h (1 Bft)
22.06.2013 06:00 14,3 C 94 % 1015,9 hPa 2,2 l/m W-NW 0,00 h 7 W/m 6,0 km/h (2 Bft)
22.06.2013 07:00 13,9 C 96 % 1016,1 hPa 4,4 l/m N 0,00 h 16 W/m 1,9 km/h (1 Bft)
22.06.2013 08:00 14,0 C 97 % 1016,4 hPa 3,0 l/m NW 0,00 h 42 W/m 3,5 km/h (1 Bft)
22.06.2013 09:00 14,5 C 96 % 1016,3 hPa 0,4 l/m NO 0,00 h 134 W/m 5,9 km/h (2 Bft)
22.06.2013 10:00 14,9 C 94 % 1016,2 hPa 0,0 l/m O 0,00 h 120 W/m 5,9 km/h (2 Bft)
22.06.2013 11:00 16,1 C 90 % 1016,2 hPa 0,0 l/m O 0,00 h 264 W/m 8,0 km/h (2 Bft)
22.06.2013 12:00 17,1 C 87 % 1015,8 hPa 0,0 l/m S-SW 0,00 h 219 W/m 8,8 km/h (2 Bft)
22.06.2013 13:00 16,8 C 88 % 1015,6 hPa 0,0 l/m S-SW 0,00 h 139 W/m 9,3 km/h (2 Bft)
22.06.2013 14:00 18,8 C 82 % 1014,9 hPa 0,0 l/m SW 0,75 h 767 W/m 12,6 km/h (3 Bft)
22.06.2013 15:00 20,9 C 73 % 1014,3 hPa 0,0 l/m S-SW 0,67 h 644 W/m 16,2 km/h (3 Bft)
22.06.2013 16:00 21,9 C 67 % 1013,9 hPa 0,0 l/m SW 0,92 h 720 W/m 17,0 km/h (3 Bft)
22.06.2013 17:00 21,9 C 64 % 1013,3 hPa 0,0 l/m SW 0,92 h 559 W/m 16,4 km/h (3 Bft)
22.06.2013 18:00 21,7 C 62 % 1012,9 hPa 0,0 l/m W-SW 1,00 h 421 W/m 17,3 km/h (3 Bft)
22.06.2013 19:00 20,7 C 66 % 1012,8 hPa 0,0 l/m SW 1,00 h 241 W/m 13,2 km/h (3 Bft)
22.06.2013 20:00 18,9 C 73 % 1012,6 hPa 0,0 l/m SW 0,33 h 57 W/m 10,6 km/h (2 Bft)
22.06.2013 21:00 17,2 C 81 % 1013,0 hPa 0,0 l/m W-SW 0,00 h 7 W/m 8,0 km/h (2 Bft)
22.06.2013 22:00 17,0 C 82 % 1013,5 hPa 0,0 l/m W-SW 0,00 h 0 W/m 14,0 km/h (3 Bft)
22.06.2013 23:00 16,7 C 81 % 1013,7 hPa 0,0 l/m W-SW 0,00 h 0 W/m 11,0 km/h (2 Bft)
23.06.2013 00:00 15,8 C 85 % 1013,6 hPa 0,0 l/m W-SW 0,00 h 0 W/m 2,7 km/h (1 Bft)
23.06.2013 01:00 15,6 C 87 % 1013,4 hPa 0,0 l/m W-SW 0,00 h 0 W/m 3,6 km/h (1 Bft)
23.06.2013 02:00 15,4 C 86 % 1013,4 hPa 0,0 l/m N 0,00 h 0 W/m 3,1 km/h (1 Bft)
23.06.2013 03:00 14,8 C 91 % 1013,1 hPa 0,0 l/m SW 0,00 h 0 W/m 6,0 km/h (2 Bft)
23.06.2013 04:00 14,9 C 91 % 1013,2 hPa 0,0 l/m SW 0,00 h 0 W/m 9,0 km/h (2 Bft)
23.06.2013 05:00 15,3 C 85 % 1013,2 hPa 0,0 l/m W-SW 0,00 h 7 W/m 11,7 km/h (2 Bft)
23.06.2013 06:00 15,4 C 83 % 1013,2 hPa 0,0 l/m W-SW 0,00 h 18 W/m 12,1 km/h (2 Bft)
23.06.2013 07:00 15,4 C 82 % 1013,2 hPa 0,0 l/m W-SW 0,00 h 27 W/m 13,0 km/h (3 Bft)
23.06.2013 08:00 15,4 C 83 % 1013,5 hPa 0,0 l/m W 0,00 h 48 W/m 10,3 km/h (2 Bft)
23.06.2013 09:00 15,5 C 83 % 1013,8 hPa 0,0 l/m W-SW 0,00 h 101 W/m 14,2 km/h (3 Bft)
23.06.2013 10:00 16,0 C 83 % 1014,0 hPa 0,0 l/m SW 0,00 h 168 W/m 12,6 km/h (3 Bft)
23.06.2013 11:00 16,6 C 81 % 1014,0 hPa 0,0 l/m SW 0,08 h 217 W/m 14,1 km/h (3 Bft)
23.06.2013 12:00 16,9 C 74 % 1014,0 hPa 0,0 l/m W-SW 0,00 h 179 W/m 18,2 km/h (3 Bft)
23.06.2013 13:00 16,7 C 74 % 1013,9 hPa 0,0 l/m W-NW 0,00 h 140 W/m 18,5 km/h (3 Bft)
23.06.2013 14:00 17,0 C 66 % 1013,9 hPa 0,0 l/m W 0,00 h 262 W/m 20,4 km/h (4 Bft)
23.06.2013 15:00 17,5 C 65 % 1014,0 hPa 0,0 l/m W-SW 0,00 h 259 W/m 18,1 km/h (3 Bft)
23.06.2013 16:00 16,7 C 68 % 1013,7 hPa 0,0 l/m SW 0,00 h 77 W/m 13,3 km/h (3 Bft)
23.06.2013 17:00 15,8 C 77 % 1013,9 hPa 0,0 l/m SW 0,00 h 57 W/m 12,0 km/h (2 Bft)
23.06.2013 18:00 15,2 C 79 % 1014,1 hPa 0,0 l/m SW 0,00 h 89 W/m 20,2 km/h (4 Bft)
23.06.2013 19:00 14,1 C 84 % 1014,6 hPa 0,0 l/m SW 0,00 h 39 W/m 19,3 km/h (3 Bft)
23.06.2013 20:00 14,0 C 84 % 1014,9 hPa 0,0 l/m SW 0,92 h 89 W/m 17,7 km/h (3 Bft)
23.06.2013 21:00 12,9 C 89 % 1015,9 hPa 0,0 l/m SW 0,25 h 23 W/m 16,6 km/h (3 Bft)
23.06.2013 22:00 12,2 C 91 % 1016,4 hPa 0,0 l/m SW 0,00 h 0 W/m 10,5 km/h (2 Bft)
23.06.2013 23:00 11,5 C 92 % 1016,6 hPa 0,0 l/m SW 0,00 h 0 W/m 9,0 km/h (2 Bft)
Min-Datum _ 23.06.13 17.06.13 20.06.13 - - - - 17.06.13
_ Min-Zeit 23:55 18:10 19:35 - - - - 00:00
Minimum _ 11,2 C 30 % 1005,9 hPa - - - - 0,0 km/h (0 Bft)
Max-Datum _ 18.06.13 21.06.13 23.06.13 22.06.13 - 17.06.13 21.06.13 20.06.13
_ Max-Zeit 16:15 06:10 23:00 07:50 - 07:05 13:20 22:30
Maximum _ 33,9 C 98 % 1016,7 hPa 4,4 l/m - 0,08 h 1150 W/m 46,7 km/h
W-NW (6 Bft)
Durchschnitt _ 21,0 C 72 % 1011,5 hPa #17,0 l/m SW #58:55 h 353 W/m 8,5 km/h (2 Bft)